2022年9月26日

时间 代码 天气 温度 能见度 天花板 METAR/SPECI
13:00
V
20 °C 10 km+ - 290° 290° 15 kt METAR LFMK 261100Z AUTO 29015KT 260V320 9999 FEW030 20/10 Q1014 TEMPO SCT035TCU BECMG 27015G27KT
12:30
V
19 °C 10 km+ - 280° 280° 13 kt METAR LFMK 261030Z AUTO 28013KT 9999 FEW026 19/11 Q1014 TEMPO SCT035TCU BECMG 27015G27KT
12:00
V
19 °C 10 km+ - 280° 280° 12 kt METAR LFMK 261000Z AUTO 28012KT 240V310 9999 FEW026 19/11 Q1014 TEMPO SCT035TCU BECMG 27015G27KT
11:30
V
17 °C 10 km+ - 270° 270° 12 kt METAR LFMK 260930Z AUTO 27012KT 220V290 CAVOK 17/11 Q1014 TEMPO SCT035TCU BECMG 27015G27KT
11:00
V
16 °C 10 km+ - 270° 270° 13 kt METAR LFMK 260900Z AUTO 27013KT 240V300 CAVOK 16/11 Q1015 TEMPO SCT035 SCT040TCU
10:30
V
15 °C 10 km+ - 270° 270° 11 kt METAR LFMK 260830Z AUTO 27011KT 230V310 CAVOK 15/11 Q1014 TEMPO SCT035 SCT040TCU
10:00
V
14 °C 10 km+ - 280° 280° 12 kt METAR LFMK 260800Z AUTO 28012KT CAVOK 14/11 Q1014 NOSIG
09:30
V
13 °C 10 km+ - 270° 270° 9 kt METAR LFMK 260730Z AUTO 27009KT 240V300 9999 FEW038 13/10 Q1014 NOSIG
09:00
V
12 °C 10 km+ - 280° 280° 6 kt METAR LFMK 260700Z AUTO 28006KT 250V310 9999 FEW040 12/10 Q1014 BECMG 27017KT
08:30
V
11 °C 10 km+ - 270° 270° 7 kt METAR LFMK 260630Z AUTO 27007KT 230V290 CAVOK 11/09 Q1014 BECMG 27017KT
08:00
V
11 °C 10 km+ - 270° 270° 7 kt METAR LFMK 260600Z AUTO 27007KT CAVOK 11/09 Q1014 BECMG 27017KT
07:30
V
11 °C 10 km+ - 270° 270° 8 kt METAR LFMK 260530Z AUTO 27008KT CAVOK 11/09 Q1014 NOSIG
07:00
V
10 °C 10 km+ - 270° 270° 6 kt METAR LFMK 260500Z AUTO 27006KT CAVOK 10/09 Q1014 NOSIG
06:30
V
10 °C 10 km+ - 270° 270° 6 kt METAR LFMK 260430Z AUTO 27006KT CAVOK 10/09 Q1014 NOSIG
06:00
V
11 °C 10 km+ - 270° 270° 8 kt METAR LFMK 260400Z AUTO 27008KT CAVOK 11/09 Q1014 NOSIG
05:30
V
11 °C 10 km+ - 260° 260° 7 kt METAR LFMK 260330Z AUTO 26007KT 230V300 CAVOK 11/09 Q1014 NOSIG
05:00
V
11 °C 10 km+ - 270° 270° 8 kt METAR LFMK 260300Z AUTO 27008KT 230V290 CAVOK 11/09 Q1014
04:30
V
11 °C 10 km+ - 270° 270° 7 kt METAR LFMK 260230Z AUTO 27007KT CAVOK 11/09 Q1014
04:00
V
11 °C 10 km+ - 280° 280° 7 kt METAR LFMK 260200Z AUTO 28007KT CAVOK 11/09 Q1014
03:30
V
12 °C 10 km+ - 270° 270° 7 kt METAR LFMK 260130Z AUTO 27007KT CAVOK 12/09 Q1015
03:00
V
12 °C 10 km+ - 260° 260° 7 kt METAR LFMK 260100Z AUTO 26007KT CAVOK 12/09 Q1015
02:30
V
13 °C 10 km+ - 270° 270° 8 kt METAR LFMK 260030Z AUTO 27008KT 230V290 CAVOK 13/09 Q1015
02:00
V
13 °C 10 km+ - 260° 260° 7 kt METAR LFMK 260000Z AUTO 26007KT CAVOK 13/09 Q1015
01:30
V
13 °C 10 km+ - 260° 260° 7 kt METAR LFMK 252330Z AUTO 26007KT 230V290 CAVOK 13/10 Q1015
01:00
V
13 °C 10 km+ - 280° 280° 5 kt METAR LFMK 252300Z AUTO 28005KT CAVOK 13/09 Q1015
00:30
V
14 °C 10 km+ - 260° 260° 7 kt METAR LFMK 252230Z AUTO 26007KT 230V290 CAVOK 14/10 Q1016
00:00
V
14 °C 10 km+ - 260° 260° 6 kt METAR LFMK 252200Z AUTO 26006KT 230V290 CAVOK 14/10 Q1016

2022年9月25日

时间 代码 天气 温度 能见度 天花板 METAR/SPECI
23:30
V
14 °C 10 km+ - 250° 250° 6 kt METAR LFMK 252130Z AUTO 25006KT 220V290 CAVOK 14/10 Q1016
23:00
V
14 °C 10 km+ - 260° 260° 5 kt METAR LFMK 252100Z AUTO 26005KT 230V290 CAVOK 14/10 Q1016
22:30
V
14 °C 10 km+ - 260° 260° 5 kt METAR LFMK 252030Z AUTO 26005KT 230V290 CAVOK 14/10 Q1016
22:00
V
14 °C 10 km+ - 270° 270° 5 kt METAR LFMK 252000Z AUTO 27005KT CAVOK 14/10 Q1016 NOSIG
21:30
V
14 °C 10 km+ - 270° 270° 4 kt METAR LFMK 251930Z AUTO 27004KT 230V300 CAVOK 14/10 Q1016 NOSIG
21:00
V
14 °C 10 km+ - 280° 280° 4 kt METAR LFMK 251900Z AUTO 28004KT CAVOK 14/10 Q1015 NOSIG
20:30
V
15 °C 10 km+ - 280° 280° 3 kt METAR LFMK 251830Z AUTO 28003KT CAVOK 15/09 Q1015 NOSIG
20:00
V
16 °C 10 km+ - 290° 290° 4 kt METAR LFMK 251800Z AUTO 29004KT CAVOK 16/09 Q1015 NOSIG
19:30
V
18 °C 10 km+ - 310° 310° 8 kt METAR LFMK 251730Z AUTO 31008KT CAVOK 18/09 Q1014 NOSIG
19:00
V
18 °C 10 km+ - 300° 300° 9 kt METAR LFMK 251700Z AUTO 30009KT 9999 FEW047 18/09 Q1014 NOSIG
18:30
V
20 °C 10 km+ - 280° 280° 11 kt METAR LFMK 251630Z AUTO 28011KT CAVOK 20/09 Q1014 NOSIG
18:00
V
19 °C 10 km+ - 280° 280° 11 kt METAR LFMK 251600Z AUTO 28011KT 240V300 CAVOK 19/08 Q1014 NOSIG
17:30
V
21 °C 10 km+ - 290° 290° 11 kt METAR LFMK 251530Z AUTO 29011KT 260V320 9999 SCT052 21/09 Q1014 NOSIG
17:00
V
21 °C 10 km+ - 280° 280° 12 kt METAR LFMK 251500Z AUTO 28012KT 240V310 9999 FEW050 21/08 Q1014 NOSIG
16:30
V
21 °C 10 km+ - 280° 280° 12 kt METAR LFMK 251430Z AUTO 28012KT 240V310 9999 SCT049 SCT056 21/09 Q1014 NOSIG
16:00
V
20 °C 10 km+ - 290° 290° 12 kt METAR LFMK 251400Z AUTO 29012KT 260V330 9999 SCT045 SCT064 20/08 Q1014 TEMPO 28015G25KT
15:30
V
20 °C 10 km+ - 290° 290° 13 kt METAR LFMK 251330Z AUTO 29013KT 9999 FEW049 20/08 Q1014 TEMPO 28015G25KT
15:00
V
20 °C 10 km+ - 300° 300° 13 kt METAR LFMK 251300Z AUTO 30013KT CAVOK 20/09 Q1014 TEMPO 28015G25KT
14:30
V
21 °C 10 km+ 5.600 ft 310° 310° 12 kt METAR LFMK 251230Z AUTO 31012KT 260V330 9999 SCT043 BKN056 21/08 Q1015 TEMPO 28015G25KT
14:00
V
21 °C 10 km+ 4.100 ft 300° 300° 12 kt METAR LFMK 251200Z AUTO 30012KT 260V330 9999 BKN041 21/09 Q1015 TEMPO 28015G25KT
13:30
V
20 °C 10 km+ - 300° 300° 11 kt METAR LFMK 251130Z AUTO 30011KT 260V330 9999 FEW036 SCT044 20/09 Q1015 TEMPO 28015G25KT
13:00
V
19 °C 10 km+ - 290° 290° 12 kt METAR LFMK 251100Z AUTO 29012KT 250V330 9999 FEW028 SCT034 19/10 Q1015 TEMPO 28015G25KT
12:30
M
18 °C 10 km+ 2.700 ft 280° 280° 11 kt METAR LFMK 251030Z AUTO 28011KT 230V320 9999 BKN027 BKN035 BKN047 18/11 Q1015 TEMPO 28015G25KT
12:00
V
17 °C 10 km+ 3.000 ft 290° 290° 11 kt METAR LFMK 251000Z AUTO 29011KT 9999 SCT022 BKN030 BKN035 17/12 Q1016 TEMPO 28015G25KT
11:30
M
16 °C 10 km+ 1.800 ft 280° 280° 9 kt METAR LFMK 250930Z AUTO 28009KT 250V310 9999 BKN018 BKN024 BKN033 16/12 Q1016 TEMPO 28015G25KT
11:00
M
15 °C 10 km+ 1.700 ft 270° 270° 10 kt METAR LFMK 250900Z AUTO 27010KT 230V310 9999 BKN017 BKN023 OVC029 15/12 Q1016 TEMPO 28015G25KT
10:30
M
14 °C 10 km+ 1.500 ft 270° 270° 9 kt METAR LFMK 250830Z AUTO 27009KT 230V300 9999 BKN015 BKN025 14/12 Q1016 NOSIG
10:00
V
15 °C 10 km+ - 260° 260° 9 kt METAR LFMK 250800Z AUTO 26009KT 230V290 9999 SCT011 SCT026 15/12 Q1015 NOSIG
09:30
M
14 °C 10 km+ 1.000 ft 280° 280° 12 kt METAR LFMK 250730Z AUTO 28012KT 240V300 9999 OVC010 14/11 Q1015 BECMG FEW040
09:00
V
13 °C 10 km+ - 260° 260° 6 kt METAR LFMK 250700Z AUTO 26006KT 220V290 9999 SCT013 13/11 Q1015 NOSIG
08:30
M
13 °C 10 km+ 1.300 ft 280° 280° 9 kt METAR LFMK 250630Z AUTO 28009KT 9999 BKN013 13/11 Q1015 BECMG BKN022
08:00
M
13 °C 10 km+ 1.700 ft 280° 280° 5 kt METAR LFMK 250600Z AUTO 28005KT 9999 BKN017 13/11 Q1015 TEMPO BKN014
07:30
M
13 °C 10 km+ 2.600 ft 260° 260° 5 kt METAR LFMK 250530Z AUTO 26005KT 230V300 9999 SCT018 OVC026 13/11 Q1015 TEMPO BKN014
07:00
M
13 °C 10 km+ 2.600 ft 260° 260° 6 kt METAR LFMK 250500Z AUTO 26006KT 230V300 9999 SCT020 BKN026 BKN044 13/11 Q1015 TEMPO BKN014
06:30
M
13 °C 10 km+ 2.100 ft 270° 270° 7 kt METAR LFMK 250430Z AUTO 27007KT 9999 BKN021 BKN027 BKN033 13/11 Q1014 TEMPO BKN014
06:00
M
13 °C 10 km+ 2.100 ft 270° 270° 6 kt METAR LFMK 250400Z AUTO 27006KT 230V300 9999 BKN021 OVC034 13/11 Q1014 TEMPO BKN014
05:30
M
13 °C 10 km+ 2.100 ft 240° 240° 6 kt METAR LFMK 250330Z AUTO 24006KT 200V280 9999 BKN021 13/11 Q1014 TEMPO BKN014
05:00
M
13 °C 10 km+ 2.200 ft 270° 270° 5 kt METAR LFMK 250300Z AUTO 27005KT 9999 BKN022 BKN032 13/11 Q1014 TEMPO BKN014
04:30
M
13 °C 10 km+ 2.200 ft 270° 270° 6 kt METAR LFMK 250230Z AUTO 27006KT 9999 OVC022 13/12 Q1014
04:00
M
13 °C 10 km+ 2.200 ft 260° 260° 6 kt METAR LFMK 250200Z AUTO 26006KT 230V290 9999 OVC022 13/12 Q1015
03:30
M
13 °C 10 km+ 2.200 ft 250° 250° 4 kt METAR LFMK 250130Z AUTO 25004KT 220V290 9999 BKN022 BKN160 OVC190 13/12 Q1015
03:00
V
13 °C 10 km+ - 260° 260° 7 kt METAR LFMK 250100Z AUTO 26007KT 230V290 CAVOK 13/11 Q1015
02:30
V
13 °C 10 km+ - 280° 280° 9 kt METAR LFMK 250030Z AUTO 28009KT CAVOK 13/11 Q1015
02:00
V
13 °C 10 km+ 9.800 ft 260° 260° 8 kt METAR LFMK 250000Z AUTO 26008KT 9999 FEW040 OVC098 13/11 Q1015
01:30
V
13 °C 10 km+ 8.400 ft 240° 240° 6 kt METAR LFMK 242330Z AUTO 24006KT 210V270 9999 SCT034 SCT044 BKN084 13/11 Q1016
01:00
V
13 °C 10 km+ - 250° 250° 7 kt METAR LFMK 242300Z AUTO 25007KT 220V280 CAVOK 13/12 Q1015
00:30
V
13 °C 10 km+ - 250° 250° 5 kt METAR LFMK 242230Z AUTO 25005KT CAVOK 13/12 Q1015
00:00
V
14 °C 10 km+ - 260° 260° 5 kt METAR LFMK 242200Z AUTO 26005KT 230V290 9999 FEW039 14/12 Q1015

2022年9月24日

时间 代码 天气 温度 能见度 天花板 METAR/SPECI
23:30
V
14 °C 10 km+ 10.000 ft 260° 260° 5 kt METAR LFMK 242130Z AUTO 26005KT 9999 FEW035 OVC100 14/12 Q1015
23:00
V
14 °C 10 km+ 9.000 ft 260° 260° 4 kt METAR LFMK 242100Z AUTO 26004KT 230V290 9999 FEW035 OVC090 14/13 Q1015
22:30
V
14 °C 10 km+ 8.600 ft 270° 270° 3 kt METAR LFMK 242030Z AUTO 27003KT 220V300 9999 FEW068 OVC086 14/13 Q1016
22:00
V
15 °C 10 km+ 7.000 ft 260° 260° 4 kt METAR LFMK 242000Z AUTO 26004KT 230V290 9999 BKN070 OVC088 15/14 Q1016
21:30
V
15 °C 10 km+ 6.000 ft 260° 260° 3 kt METAR LFMK 241930Z AUTO 26003KT 230V290 9999 FEW026 BKN060 BKN082 15/14 Q1015
21:00
V
15 °C 10 km+ 9.400 ft 250° 250° 5 kt METAR LFMK 241900Z AUTO 25005KT 220V280 9999 FEW078/// OVC094/// //////TCU 15/13 Q1015
20:30
V
14 °C 10 km+ 7.400 ft 260° 260° 6 kt METAR LFMK 241830Z AUTO 26006KT 230V290 9999 BKN074 OVC098 14/13 Q1015
20:00
V
14 °C 10 km+ - 280° 280° 7 kt METAR LFMK 241800Z AUTO 28007KT 9999 -RA //////TCU 14/13 Q1015 TEMPO 4000 -SHRA
19:30
V
15 °C 10 km+ 8.600 ft 280° 280° 10 kt METAR LFMK 241730Z AUTO 28010KT 9999 -RA FEW014/// OVC086/// //////CB 15/13 Q1014 TEMPO 4000 -SHRA
19:00
V
16 °C 10 km+ 5.000 ft 290° 290° 10 kt METAR LFMK 241700Z AUTO 29010KT 9999 RA FEW027/// SCT041/// BKN050/// //////CB 16/14 Q1014 TEMPO 4000 -SHRA
18:30
V
17 °C 10 km+ 7.600 ft 280° 280° 8 kt METAR LFMK 241630Z AUTO 28008KT 9999 -RA FEW041/// BKN076/// OVC090/// //////CB 17/15 Q1014 TEMPO 4000 -SHRA
18:00
V
17 °C 10 km+ 7.400 ft 270° 270° 7 kt METAR LFMK 241600Z AUTO 27007KT 230V300 9999 -RA SCT056/// OVC074/// ///CB 17/14 Q1013 TEMPO 4000 -SHRA
17:30
V
18 °C 10 km+ 5.000 ft 280° 280° 10 kt METAR LFMK 241530Z AUTO 28010KT 9999 -RA FEW042/// BKN050/// BKN062/// //////CB 18/14 Q1013 TEMPO 4000 -SHRA
17:00
V
20 °C 10 km+ 7.600 ft 310° 310° 7 kt METAR LFMK 241500Z AUTO 31007KT 270V330 9999 FEW047/// BKN076/// OVC092/// //////CB 20/11 Q1012 TEMPO 4000 -SHRA
16:30
V
21 °C 10 km+ 7.800 ft 290° 290° 8 kt METAR LFMK 241430Z AUTO 29008KT 9999 OVC078/// //////TCU 21/10 Q1013 TEMPO 4000 -SHRA
16:00
V
21 °C 10 km+ 8.400 ft 300° 300° 9 kt METAR LFMK 241400Z AUTO 30009KT 280V340 9999 OVC084 21/10 Q1013 TEMPO 4000 -SHRA SCT025TCU
15:30
V
22 °C 10 km+ 14.000 ft 280° 280° 11 kt METAR LFMK 241330Z AUTO 28011KT 250V320 9999 SCT080 BKN140 22/11 Q1013 TEMPO 4000 -SHRA SCT025TCU
15:00
V
22 °C 10 km+ - 300° 300° 11 kt METAR LFMK 241300Z AUTO 30011KT 240V330 CAVOK 22/12 Q1013 TEMPO 4000 -SHRA SCT025TCU
14:30
V
22 °C 10 km+ 12.000 ft 280° 280° 11 kt METAR LFMK 241230Z AUTO 28011KT 230V310 9999 FEW039 BKN120 22/12 Q1014 TEMPO 4000 -SHRA SCT025TCU
14:00
V
21 °C 10 km+ 5.600 ft 280° 280° 9 kt METAR LFMK 241200Z AUTO 28009KT 220V310 9999 FEW023 BKN056 BKN130 21/13 Q1014 NOSIG
13:30
M
20 °C 10 km+ 2.600 ft 280° 280° 9 kt METAR LFMK 241130Z AUTO 28009KT 240V320 9999 BKN026 BKN042 OVC060 20/14 Q1014 NOSIG
13:00
V
20 °C 10 km+ 4.300 ft 280° 280° 9 kt METAR LFMK 241100Z AUTO 28009KT 240V310 9999 FEW025 BKN043 OVC058 20/14 Q1014 NOSIG
较旧的数据

我们和第三方通过cookies跟踪您在我们网站上的上网行为。如果您继续,我们认为您同意我们的cookie政策。 了解更多